Nearby METAR Reports

EGBB - Birmingham Airport
Distance: SSW 46mi, 74km
Updated: 26/04/2018 23:50
Clear
Clear
 Wind from WSW
Wind: WSW 6 mph , 9 km/h
Temperature: 9°C
Wind Chill: 7°C
Dew Point: 4°C
Humidity: 71%
Barometer: 1013 hPa
Summary: Clear
Visibility: greater than 7 miles , 10 km
2018/04/26 22:50 EGBB 262250Z 24005KT 200V270 CAVOK 09/04 Q1013
EGBE - Coventry Airport
Distance: S 49mi, 79km
Updated: 18/07/2017 14:50
NOT Current
Clear
Clear
 Wind from E
Wind: E 16 mph , 26 km/h
Temperature: 27°C
Heat Index: 27°C
Dew Point: 14°C
Humidity: 45%
Barometer: 1015 hPa
Summary: Clear
Visibility: greater than 7 miles , 10 km
2017/07/18 13:50 EGBE 181350Z 10014KT 060V120 CAVOK 27/14 Q1015
EGCC - Manchester International
Distance: WNW 45mi, 72km
Updated: 26/04/2018 23:50
Mostly cloudy
Mostly cloudy
 Wind from SSE
Wind: SSE 3 mph , 6 km/h
Temperature: 6°C
Dew Point: 4°C
Humidity: 87%
Barometer: 1012 hPa
Clouds: Mostly cloudy
Visibility: 6 miles , 10 km
Cloud details: Mostly cloudy 1280 m
2018/04/26 22:50 EGCC 262250Z AUTO 16003KT 9999 BKN042 06/04 Q1012 NOSIG
 
EGCN - Doncaster Sheffield
Distance: NNE 31mi, 50km
Updated: 26/04/2018 23:50
Clear
Clear
 Wind from WSW
Wind: WSW 8 mph , 13 km/h
Temperature: 7°C
Wind Chill: 5°C
Dew Point: 4°C
Humidity: 81%
Barometer: 1013 hPa
Summary: Clear
Visibility: greater than 7 miles , 10 km
2018/04/26 22:50 EGCN 262250Z 25007KT CAVOK 07/04 Q1013
EGNX - East Midlands
Distance: S 18mi, 28km
Updated: 26/04/2018 23:20
Clear
Clear
 Wind from W
Wind: W 10 mph , 17 km/h
Temperature: 7°C
Wind Chill: 4°C
Dew Point: 3°C
Humidity: 76%
Barometer: 1013 hPa
Summary: Clear
Visibility: greater than 7 miles , 10 km
2018/04/26 22:20 EGNX 262220Z 26009KT CAVOK 07/03 Q1013
EGXC - Coningsby RAF
Distance: E 47mi, 75km
Updated: 26/04/2018 23:50
Clear
Clear
 Wind from WSW
Wind: WSW 6 mph , 9 km/h
Temperature: 5°C
Wind Chill: 3°C
Dew Point: 3°C
Humidity: 87%
Barometer: 1012 hPa
Summary: Clear
Visibility: greater than 7 miles , 10 km
2018/04/26 22:50 EGXC 262250Z 25005KT CAVOK 05/03 Q1012 BLU
 
EGXP - Scampton RAF
Distance: ENE 35mi, 56km
Updated: 26/04/2018 22:50
NOT Current
Mostly cloudy
Mostly cloudy
 Wind from WSW
Wind: WSW 7 mph , 11 km/h
Temperature: 7°C
Wind Chill: 5°C
Dew Point: 4°C
Humidity: 81%
Barometer: 1012 hPa
Clouds: Mostly cloudy
Visibility: 6 miles , 10 km
Cloud details: Mostly cloudy 1524 m
2018/04/26 21:50 EGXP 262150Z AUTO 24006KT 9999 // BKN050/// 07/04 Q1012
EGXS - Swinderby RAF
Distance: ENE 26mi, 42km
Updated: 26/04/2018 22:50
NOT Current
Few Clouds
Few Clouds
 Wind from SW
Wind: SW 9 mph , 15 km/h
Temperature: 7°C
Wind Chill: 4°C
Dew Point: 4°C
Humidity: 81%
Barometer: 1012 hPa
Clouds: Few Clouds
Visibility: 6 miles , 10 km
Cloud details: Few Clouds 2134 m
2018/04/26 21:50 EGXS 262150Z AUTO 22008KT 9999 // FEW070/// 07/04 Q1012
EGXT - Wittering RAF
Distance: SE 47mi, 75km
Updated: 26/04/2018 22:50
NOT Current
Overcast
Overcast
 Wind from WSW
Wind: WSW 7 mph , 11 km/h
Temperature: 8°C
Wind Chill: 6°C
Dew Point: 2°C
Humidity: 66%
Barometer: 1013 hPa
Clouds: Overcast
Visibility: 6 miles , 10 km
Cloud details: Overcast 6096 m
2018/04/26 21:50 EGXT 262150Z AUTO 24006KT 9999 OVC200/// 08/02 Q1013
 
EGXW - Waddington RAF
Distance: ENE 33mi, 53km
Updated: 26/04/2018 23:50
Clear
Clear
 Wind from WSW
Wind: WSW 7 mph , 11 km/h
Temperature: 8°C
Wind Chill: 6°C
Dew Point: 2°C
Humidity: 66%
Barometer: 1012 hPa
Summary: Clear
Visibility: greater than 7 miles , 10 km
2018/04/26 22:50 EGXW 262250Z 25006KT CAVOK 08/02 Q1012 BLU
EGYD - Cranwell RAF
Distance: E 33mi, 53km
Updated: 26/04/2018 22:50
NOT Current
Few Clouds
Few Clouds
 Wind from W
Wind: W 6 mph , 9 km/h
Temperature: 7°C
Wind Chill: 6°C
Dew Point: 3°C
Humidity: 76%
Barometer: 1013 hPa
Clouds: Few Clouds
Visibility: 6 miles , 10 km
Cloud details: Few Clouds 6706 m
2018/04/26 21:50 EGYD 262150Z AUTO 28005KT 9999 // FEW220/// 07/03 Q1013
EGYE - Barkston Heath RAF
Distance: ESE 31mi, 50km
Updated: 26/04/2018 15:50
NOT Current
Mostly cloudy
Mostly cloudy
 Wind from W
Wind: W 18 mph , 30 km/h, Gust: 30 mph , 48 km/h
Barometer: 1013 hPa
Clouds: Mostly cloudy
Visibility: 6 miles , 10 km
Cloud details: Few Clouds 1372 m
Mostly cloudy 7620 m
2018/04/26 14:50 EGYE 261450Z 26016G26KT 9999 FEW045 BKN250 ///// Q1013 BLU